Time;durP1;ratioP1;P1;durP2;ratioP2;P2;SDS_P1;SDS_P2;PMS_P1;PMS_P2;Temp;Humidity;BMP_temperature;BMP_pressure;BME280_temperature;BME280_humidity;BME280_pressure;Samples;Min_cycle;Max_cycle;Signal;HPM_P1;HPM_P2
2023/04/05 00:02:09;;;;;;;4.60;2.50;;;;;;;17.33;49.87;100905.16;5052559;28;20835;-59
2023/04/05 00:04:37;;;;;;;3.07;2.13;;;;;;;17.32;49.93;100904.34;5051080;28;20205;-60
2023/04/05 00:07:07;;;;;;;5.40;2.73;;;;;;;17.31;50.11;100898.97;5070358;28;20504;-60
2023/04/05 00:09:32;;;;;;;5.07;2.77;;;;;;;17.34;50.05;100901.94;5070919;28;20438;-59
2023/04/05 00:11:57;;;;;;;3.50;2.07;;;;;;;17.33;49.97;100899.44;5041534;28;20438;-60
2023/04/05 00:14:23;;;;;;;7.03;2.10;;;;;;;17.30;50.55;100909.56;5063572;28;20183;-60
2023/04/05 00:16:48;;;;;;;3.80;2.33;;;;;;;17.31;50.51;100913.25;5071385;28;20171;-61
2023/04/05 00:19:14;;;;;;;9.37;2.33;;;;;;;17.27;50.74;100906.59;5053321;28;20181;-59
2023/04/05 00:21:39;;;;;;;4.90;2.60;;;;;;;17.28;50.81;100903.38;5067071;28;20186;-59
2023/04/05 00:24:06;;;;;;;3.60;2.10;;;;;;;17.26;51.39;100897.19;5070588;28;20179;-60
2023/04/05 00:26:31;;;;;;;3.50;2.03;;;;;;;17.25;51.00;100898.38;5066978;28;20211;-60
2023/04/05 00:28:57;;;;;;;3.70;2.23;;;;;;;17.22;50.85;100893.41;5070192;28;20432;-60
2023/04/05 00:31:22;;;;;;;4.47;2.30;;;;;;;17.22;51.15;100898.25;5069081;28;20178;-60
2023/04/05 00:33:48;;;;;;;4.63;2.60;;;;;;;17.22;51.39;100890.56;5062004;28;20183;-60
2023/04/05 00:36:18;;;;;;;6.30;2.47;;;;;;;17.29;51.14;100890.78;5071922;28;20574;-60
2023/04/05 00:38:44;;;;;;;4.57;2.30;;;;;;;17.31;50.99;100888.38;5061206;28;20175;-60
2023/04/05 00:41:10;;;;;;;5.37;2.17;;;;;;;17.29;51.48;100882.22;5034385;28;20418;-60
2023/04/05 00:43:35;;;;;;;3.87;2.33;;;;;;;17.24;51.39;100875.91;5052907;28;20449;-60
2023/04/05 00:46:01;;;;;;;4.17;2.83;;;;;;;17.28;51.46;100883.41;5050883;28;20211;-60
2023/04/05 00:48:26;;;;;;;2.77;1.80;;;;;;;17.25;51.57;100891.84;5016998;28;20183;-59
2023/04/05 00:50:52;;;;;;;2.33;1.57;;;;;;;17.26;51.77;100885.78;5035368;28;20551;-60
2023/04/05 00:53:18;;;;;;;4.60;2.33;;;;;;;17.28;51.66;100888.28;5067512;28;20233;-60
2023/04/05 00:55:46;;;;;;;3.00;2.00;;;;;;;17.30;51.86;100886.72;5049732;28;20627;-59
2023/04/05 00:58:12;;;;;;;4.60;2.63;;;;;;;17.29;51.74;100887.06;5054041;28;20156;-60
2023/04/05 01:00:37;;;;;;;3.20;2.10;;;;;;;17.26;51.77;100882.91;5071731;28;20409;-60
2023/04/05 01:03:04;;;;;;;5.80;2.40;;;;;;;17.23;52.05;100883.66;5071558;28;20206;-60
2023/04/05 01:05:39;;;;;;;3.83;1.90;;;;;;;17.24;52.08;100878.75;5035764;28;20493;-60
2023/04/05 01:08:24;;;;;;;3.20;1.97;;;;;;;17.25;52.07;100866.19;5033619;28;20421;-60
2023/04/05 01:10:58;;;;;;;4.23;2.03;;;;;;;17.27;51.98;100872.34;5047574;28;20496;-60
2023/04/05 01:13:24;;;;;;;3.33;1.80;;;;;;;17.27;51.95;100866.63;5071486;28;20424;-59
2023/04/05 01:15:50;;;;;;;5.97;3.40;;;;;;;17.27;52.39;100867.47;5053681;28;20905;-60
2023/04/05 01:18:15;;;;;;;3.93;2.20;;;;;;;17.26;52.18;100860.09;5056531;28;20561;-60
2023/04/05 01:20:52;;;;;;;2.93;2.00;;;;;;;17.26;52.22;100860.09;5051802;28;20639;-59
2023/04/05 01:23:30;;;;;;;3.43;1.90;;;;;;;17.24;52.32;100851.06;5036853;28;20194;-59
2023/04/05 01:26:29;;;;;;;3.70;2.10;;;;;;;17.23;52.71;100857.97;5051484;28;20445;-60
2023/04/05 01:29:16;;;;;;;4.10;2.47;;;;;;;17.22;52.66;100856.31;5054643;28;20426;-59
2023/04/05 01:31:46;;;;;;;6.77;1.97;;;;;;;17.23;52.45;100859.97;5053438;28;20417;-60
2023/04/05 01:34:30;;;;;;;3.80;2.03;;;;;;;17.21;52.90;100851.78;5052115;28;20425;-60
2023/04/05 01:36:56;;;;;;;3.40;2.30;;;;;;;17.20;52.96;100852.97;5057660;28;20911;-60
2023/04/05 01:39:22;;;;;;;3.93;1.90;;;;;;;17.21;53.27;100850.97;5050710;28;20433;-60
2023/04/05 01:41:48;;;;;;;3.50;2.20;;;;;;;17.20;52.83;100852.97;5067550;28;20448;-60
2023/04/05 01:44:13;;;;;;;3.40;1.97;;;;;;;17.21;52.56;100857.47;5069697;28;20175;-60
2023/04/05 01:46:39;;;;;;;5.40;2.10;;;;;;;17.18;53.04;100852.50;5067872;28;20685;-60
2023/04/05 01:49:05;;;;;;;3.10;1.60;;;;;;;17.21;53.18;100853.81;5050006;28;20168;-60
2023/04/05 01:51:30;;;;;;;4.83;2.33;;;;;;;17.19;52.66;100854.16;5049366;28;20623;-61
2023/04/05 01:53:56;;;;;;;2.90;1.97;;;;;;;17.13;52.97;100841.34;5057692;28;20235;-59
2023/04/05 01:56:21;;;;;;;3.90;1.63;;;;;;;17.10;53.01;100836.34;5051022;28;20255;-59
2023/04/05 01:58:47;;;;;;;2.77;1.97;;;;;;;17.16;53.32;100846.31;5032582;28;20527;-60
2023/04/05 02:01:12;;;;;;;3.00;2.00;;;;;;;17.19;53.18;100830.50;5050528;28;20557;-60
2023/04/05 02:03:38;;;;;;;4.53;2.10;;;;;;;17.19;52.89;100833.34;5060184;28;20706;-60
2023/04/05 02:06:04;;;;;;;2.60;1.90;;;;;;;17.20;52.93;100833.00;5087184;28;20214;-59
2023/04/05 02:08:29;;;;;;;3.80;2.00;;;;;;;17.16;53.03;100832.03;5075763;28;20174;-59
2023/04/05 02:10:55;;;;;;;3.20;2.00;;;;;;;17.20;53.05;100833.00;5070358;28;20900;-60
2023/04/05 02:13:21;;;;;;;3.73;2.03;;;;;;;17.20;53.04;100833.00;5070035;28;20186;-59
2023/04/05 02:15:48;;;;;;;2.90;1.97;;;;;;;17.21;53.03;100837.50;5070041;28;20186;-60
2023/04/05 02:18:13;;;;;;;3.27;1.77;;;;;;;17.21;53.25;100843.22;5057294;28;20426;-60
2023/04/05 02:20:38;;;;;;;3.60;1.87;;;;;;;17.20;53.39;100837.88;5050284;28;20894;-60
2023/04/05 02:23:04;;;;;;;3.43;1.73;;;;;;;17.17;53.35;100839.44;5053212;28;20689;-59
2023/04/05 02:25:29;;;;;;;3.10;1.83;;;;;;;17.18;53.31;100835.38;5069933;28;20601;-59
2023/04/05 02:27:55;;;;;;;6.60;2.20;;;;;;;17.21;53.49;100833.84;5066323;28;20627;-60
2023/04/05 02:30:20;;;;;;;3.23;1.93;;;;;;;17.20;53.16;100829.34;5069932;28;20191;-59
2023/04/05 02:32:46;;;;;;;3.43;1.70;;;;;;;17.17;53.65;100832.88;5069967;28;20633;-59
2023/04/05 02:35:11;;;;;;;5.20;2.13;;;;;;;17.18;53.33;100828.84;5067993;28;20209;-59
2023/04/05 02:37:37;;;;;;;3.70;1.90;;;;;;;17.18;53.58;100829.69;5068359;28;20199;-60
2023/04/05 02:40:08;;;;;;;2.70;1.80;;;;;;;17.18;54.12;100820.28;5051957;28;20186;-59
2023/04/05 02:42:33;;;;;;;2.77;1.90;;;;;;;17.17;53.50;100830.03;5069890;28;20412;-60
2023/04/05 02:44:59;;;;;;;2.57;1.57;;;;;;;17.16;53.91;100831.22;5064809;28;20433;-59
2023/04/05 02:47:24;;;;;;;2.47;1.77;;;;;;;17.18;53.63;100832.53;5031896;28;20191;-60
2023/04/05 02:49:50;;;;;;;3.23;1.90;;;;;;;17.18;53.68;100838.25;5050204;28;20187;-59
2023/04/05 02:52:43;;;;;;;2.30;1.47;;;;;;;17.15;53.53;100830.38;5051846;28;20184;-59
2023/04/05 02:55:09;;;;;;;2.97;2.00;;;;;;;17.15;53.66;100829.56;5009857;28;20204;-59
2023/04/05 02:57:34;;;;;;;4.10;1.97;;;;;;;17.11;53.92;100820.88;5012578;28;20795;-58
2023/04/05 03:00:00;;;;;;;3.50;1.70;;;;;;;17.13;54.10;100823.38;5009891;28;20545;-59
2023/04/05 03:02:26;;;;;;;2.47;1.67;;;;;;;17.13;54.27;100817.66;5029527;28;20176;-59
2023/04/05 03:04:52;;;;;;;2.83;1.60;;;;;;;17.12;54.01;100819.72;5032853;28;20279;-60
2023/04/05 03:07:17;;;;;;;3.33;2.07;;;;;;;17.13;53.67;100829.94;5048614;28;20207;-60
2023/04/05 03:09:46;;;;;;;3.70;1.80;;;;;;;17.12;53.79;100830.28;5034264;28;20427;-60
2023/04/05 03:12:11;;;;;;;3.43;1.67;;;;;;;17.05;54.46;100825.16;5024462;28;20192;-59
2023/04/05 03:14:38;;;;;;;2.90;1.73;;;;;;;17.08;54.07;100829.31;5009047;28;20439;-60
2023/04/05 03:17:03;;;;;;;3.17;1.70;;;;;;;17.11;54.00;100823.72;5007459;28;20605;-59
2023/04/05 03:19:29;;;;;;;3.43;2.10;;;;;;;17.15;53.36;100829.56;5009655;28;20423;-59
2023/04/05 03:21:54;;;;;;;2.73;1.73;;;;;;;17.11;53.76;100826.59;5027340;28;20192;-60
2023/04/05 03:24:20;;;;;;;2.97;1.97;;;;;;;17.15;53.72;100829.56;5009702;28;20235;-59
2023/04/05 03:26:46;;;;;;;4.70;2.10;;;;;;;17.13;53.84;100829.94;5009684;28;20193;-59
2023/04/05 03:29:11;;;;;;;3.03;1.87;;;;;;;17.10;53.72;100827.78;5009800;28;20173;-59
2023/04/05 03:31:37;;;;;;;3.10;1.90;;;;;;;17.17;53.81;100833.72;5016391;28;20196;-60
2023/04/05 03:34:03;;;;;;;3.43;1.73;;;;;;;17.21;53.68;100830.97;5029254;28;20246;-60
2023/04/05 03:36:29;;;;;;;4.87;1.97;;;;;;;17.18;53.70;100825.97;5025830;28;20184;-60
2023/04/05 03:38:55;;;;;;;3.50;1.90;;;;;;;17.16;53.92;100826.34;5029481;28;20179;-60
2023/04/05 03:41:21;;;;;;;2.43;1.80;;;;;;;17.16;53.74;100820.63;5029365;28;20818;-60
2023/04/05 03:43:47;;;;;;;3.20;1.93;;;;;;;17.10;54.39;100824.13;5029152;28;20427;-59
2023/04/05 03:46:13;;;;;;;3.40;1.63;;;;;;;17.10;53.83;100827.78;5024957;28;20295;-60
2023/04/05 03:48:38;;;;;;;2.63;1.77;;;;;;;17.16;53.98;100826.34;5029293;28;20400;-60
2023/04/05 03:51:04;;;;;;;3.23;1.87;;;;;;;17.16;54.39;100822.66;5029220;28;20169;-60
2023/04/05 03:53:29;;;;;;;2.87;1.77;;;;;;;17.16;54.14;100819.81;5040147;28;20231;-59
2023/04/05 03:55:55;;;;;;;3.33;1.93;;;;;;;17.15;54.07;100813.28;5050975;28;20207;-59
2023/04/05 03:58:21;;;;;;;5.00;2.27;;;;;;;17.13;54.75;100821.38;5031442;28;20207;-59
2023/04/05 04:00:46;;;;;;;2.20;1.57;;;;;;;17.10;54.05;100819.22;5023927;28;20206;-59
2023/04/05 04:03:13;;;;;;;3.63;1.90;;;;;;;17.11;54.20;100829.44;5068135;28;20183;-60
2023/04/05 04:05:39;;;;;;;3.17;1.50;;;;;;;17.08;54.37;100829.31;5085897;28;20244;-59
2023/04/05 04:08:05;;;;;;;3.13;1.80;;;;;;;17.11;54.13;100829.44;5056613;28;20429;-59
2023/04/05 04:10:31;;;;;;;2.80;1.80;;;;;;;17.12;54.18;100825.41;5069212;28;20186;-59
2023/04/05 04:12:56;;;;;;;2.77;2.00;;;;;;;17.11;53.93;100828.63;5072352;28;20438;-59
2023/04/05 04:15:21;;;;;;;2.73;1.60;;;;;;;17.07;54.40;100828.50;5072371;28;20164;-59
2023/04/05 04:17:47;;;;;;;3.33;1.60;;;;;;;17.07;54.58;100822.81;5071123;28;20167;-59
2023/04/05 04:20:13;;;;;;;3.43;2.10;;;;;;;17.08;54.37;100823.63;5063046;28;20194;-59
2023/04/05 04:22:39;;;;;;;3.00;1.80;;;;;;;17.06;54.48;100826.81;5048208;28;20815;-60
2023/04/05 04:25:09;;;;;;;2.73;1.80;;;;;;;17.07;54.63;100828.50;5071830;28;20425;-60
2023/04/05 04:27:43;;;;;;;3.10;2.07;;;;;;;17.07;54.39;100827.66;5072549;28;20218;-60
2023/04/05 04:30:10;;;;;;;2.67;1.43;;;;;;;17.04;54.31;100826.38;5060216;28;20433;-60
2023/04/05 04:35:37;;;;;;;3.00;1.70;;;;;;;17.09;54.22;100816.72;5046365;28;20437;-59
2023/04/05 04:38:03;;;;;;;2.50;1.57;;;;;;;17.11;54.10;100823.72;5069085;28;20437;-60
2023/04/05 04:40:39;;;;;;;3.17;2.00;;;;;;;17.08;54.32;100827.31;5069981;28;20441;-60
2023/04/05 04:43:13;;;;;;;2.97;1.90;;;;;;;17.09;53.97;100825.28;5071359;28;20401;-59
2023/04/05 04:45:45;;;;;;;2.57;1.77;;;;;;;17.12;54.13;100830.28;5070938;28;20497;-60
2023/04/05 04:48:12;;;;;;;2.90;2.23;;;;;;;17.09;54.23;100820.41;5062910;28;20453;-60
2023/04/05 04:50:38;;;;;;;2.77;1.80;;;;;;;17.10;54.24;100822.06;5051118;28;21153;-59
2023/04/05 04:53:03;;;;;;;3.60;1.87;;;;;;;17.15;53.84;100813.28;5053929;28;20474;-60
2023/04/05 04:55:29;;;;;;;3.17;2.20;;;;;;;17.16;54.24;100809.22;5051952;28;20172;-59
2023/04/05 04:57:54;;;;;;;3.20;1.57;;;;;;;17.14;54.39;100823.03;5051809;28;20168;-60
2023/04/05 05:00:21;;;;;;;2.83;1.97;;;;;;;17.06;54.42;100826.00;5057083;28;20201;-58
2023/04/05 05:02:46;;;;;;;2.57;1.73;;;;;;;17.06;54.68;100820.31;5052029;28;20237;-59
2023/04/05 05:05:12;;;;;;;2.30;1.40;;;;;;;17.09;54.27;100828.97;5078167;28;20428;-59
2023/04/05 05:07:40;;;;;;;3.70;1.90;;;;;;;17.11;54.08;100831.47;5072197;28;20235;-59
2023/04/05 05:10:06;;;;;;;3.87;2.27;;;;;;;17.10;54.42;100826.97;5070913;28;20195;-59
2023/04/05 05:12:32;;;;;;;3.23;1.97;;;;;;;17.07;54.36;100828.50;5051409;28;20418;-59
2023/04/05 05:14:57;;;;;;;2.43;1.60;;;;;;;17.08;54.46;100830.16;5038203;28;20452;-59
2023/04/05 05:17:23;;;;;;;3.43;1.93;;;;;;;17.09;54.09;100837.53;5051258;28;20245;-59
2023/04/05 05:19:49;;;;;;;2.80;1.80;;;;;;;17.09;54.63;100837.53;5053974;28;20187;-59
2023/04/05 05:22:15;;;;;;;2.97;2.10;;;;;;;17.09;54.68;100842.41;5033346;28;20295;-59
2023/04/05 05:24:41;;;;;;;3.40;2.10;;;;;;;17.08;54.84;100843.59;5051220;28;20418;-59
2023/04/05 05:27:06;;;;;;;2.60;1.83;;;;;;;17.06;54.37;100838.25;5057523;28;20658;-59
2023/04/05 05:29:32;;;;;;;2.90;1.83;;;;;;;17.06;54.43;100840.28;5063858;28;20504;-59
2023/04/05 05:31:57;;;;;;;4.23;2.43;;;;;;;17.03;54.44;100844.69;5057767;28;20218;-59
2023/04/05 05:34:23;;;;;;;3.20;2.20;;;;;;;17.04;54.50;100846.34;5051549;28;20632;-59
2023/04/05 05:36:50;;;;;;;3.07;2.03;;;;;;;17.06;54.51;100846.78;5037874;28;20188;-59
2023/04/05 05:39:15;;;;;;;3.13;1.97;;;;;;;17.06;54.46;100848.84;5051000;28;20167;-60
2023/04/05 05:41:41;;;;;;;4.50;2.23;;;;;;;17.02;54.72;100843.03;5052289;28;20437;-60
2023/04/05 05:44:06;;;;;;;2.90;2.00;;;;;;;17.04;54.90;100840.63;5069868;28;20189;-60
2023/04/05 05:46:32;;;;;;;3.53;2.10;;;;;;;17.04;54.84;100845.50;5052859;28;20210;-60
2023/04/05 05:48:57;;;;;;;3.70;2.40;;;;;;;17.00;54.68;100851.09;5051014;28;20164;-59
2023/04/05 05:51:23;;;;;;;3.20;2.17;;;;;;;17.05;54.29;100855.72;5066035;28;20186;-59
2023/04/05 05:53:48;;;;;;;4.33;2.77;;;;;;;17.14;54.29;100850.72;5070451;28;20222;-60
2023/04/05 05:56:14;;;;;;;4.77;2.73;;;;;;;17.12;54.59;100848.25;5070155;28;20163;-59
2023/04/05 05:58:39;;;;;;;3.77;2.53;;;;;;;17.05;54.25;100859.41;5068362;28;20167;-58
2023/04/05 06:01:06;;;;;;;3.80;2.23;;;;;;;17.05;54.39;100862.25;5057605;28;20561;-59
2023/04/05 06:03:32;;;;;;;3.47;2.37;;;;;;;17.07;54.45;100867.59;5060713;28;20183;-59
2023/04/05 06:05:58;;;;;;;2.20;1.70;;;;;;;17.06;54.53;100855.34;5042161;28;20457;-59
2023/04/05 06:08:24;;;;;;;3.83;2.40;;;;;;;17.12;54.44;100865.34;5040639;28;20449;-59
2023/04/05 06:10:49;;;;;;;3.60;2.60;;;;;;;17.12;54.51;100867.38;5054626;28;20425;-59
2023/04/05 06:13:15;;;;;;;3.83;2.20;;;;;;;17.13;54.37;100867.00;5031641;28;20164;-59
2023/04/05 06:15:41;;;;;;;3.30;2.00;;;;;;;17.09;54.40;100870.91;5051454;28;20183;-59
2023/04/05 06:18:07;;;;;;;3.13;2.00;;;;;;;17.08;54.52;100864.41;5049606;28;20520;-60
2023/04/05 06:20:32;;;;;;;2.73;1.73;;;;;;;17.12;54.36;100859.66;5056975;28;20191;-59
2023/04/05 06:22:58;;;;;;;3.60;2.13;;;;;;;17.08;54.58;100857.84;5027024;28;20164;-60
2023/04/05 06:25:23;;;;;;;4.00;2.20;;;;;;;17.11;54.55;100863.66;5058875;28;20712;-60
2023/04/05 06:27:49;;;;;;;3.07;2.27;;;;;;;17.13;54.38;100863.31;5036484;28;20179;-59
2023/04/05 06:30:14;;;;;;;2.80;2.00;;;;;;;17.11;54.53;100857.97;5060686;28;20178;-58
2023/04/05 06:32:40;;;;;;;3.70;2.40;;;;;;;17.12;54.47;100858.81;5063339;28;20182;-59
2023/04/05 06:35:06;;;;;;;3.30;2.40;;;;;;;17.09;54.68;100866.06;5060949;28;20267;-59
2023/04/05 06:37:32;;;;;;;3.07;2.10;;;;;;;17.10;54.56;100870.56;5059588;28;20172;-58
2023/04/05 06:39:58;;;;;;;3.70;2.10;;;;;;;17.08;54.47;100870.09;5055688;28;20523;-59
2023/04/05 06:42:23;;;;;;;3.63;2.27;;;;;;;17.07;54.43;100859.91;5056921;28;20237;-58
2023/04/05 06:44:49;;;;;;;3.83;2.20;;;;;;;17.06;54.75;100858.22;5058323;28;20176;-59
2023/04/05 06:47:14;;;;;;;3.50;2.40;;;;;;;17.07;55.21;100856.19;5054666;28;20206;-58
2023/04/05 06:49:40;;;;;;;3.50;2.43;;;;;;;17.08;54.52;100858.69;5066064;28;20179;-58
2023/04/05 06:52:05;;;;;;;2.90;1.90;;;;;;;17.07;54.69;100857.03;5063995;28;20210;-59
2023/04/05 06:54:32;;;;;;;3.47;2.13;;;;;;;17.04;54.84;100863.44;5058555;28;20232;-59
2023/04/05 06:56:58;;;;;;;8.27;5.00;;;;;;;16.76;52.21;100861.66;5069402;28;20461;-62
2023/04/05 06:59:23;;;;;;;9.80;5.23;;;;;;;16.33;45.02;100859.31;5052412;28;20438;-59
2023/04/05 07:01:48;;;;;;;13.27;7.40;;;;;;;16.76;48.63;100856.78;5064088;28;20577;-60
2023/04/05 07:04:14;;;;;;;16.50;7.37;;;;;;;17.42;46.24;100858.22;5066198;28;20230;-60
2023/04/05 07:06:40;;;;;;;19.27;6.67;;;;;;;17.68;44.07;100861.47;5057345;28;20587;-60
2023/04/05 07:09:06;;;;;;;16.50;6.00;;;;;;;18.06;43.65;100861.78;5047723;28;20172;-60
2023/04/05 07:11:31;;;;;;;15.90;5.50;;;;;;;18.64;42.95;100863.88;5047300;28;20153;-61
2023/04/05 07:13:58;;;;;;;15.57;6.10;;;;;;;18.77;43.09;100862.56;5061099;28;20808;-60
2023/04/05 07:16:24;;;;;;;18.40;5.67;;;;;;;19.01;43.12;100855.84;5054928;28;20266;-61
2023/04/05 07:18:50;;;;;;;17.13;5.67;;;;;;;19.07;43.37;100857.22;5064331;28;20804;-61
2023/04/05 07:21:15;;;;;;;17.03;5.83;;;;;;;19.09;44.18;100851.94;5064849;28;20241;-60
2023/04/05 07:23:41;;;;;;;11.90;4.90;;;;;;;19.01;43.71;100856.66;5065625;28;20225;-61
2023/04/05 07:26:07;;;;;;;13.43;5.43;;;;;;;19.00;44.29;100852.13;5064993;28;20207;-60
2023/04/05 07:28:34;;;;;;;26.20;5.70;;;;;;;18.96;44.63;100850.38;5049897;28;20188;-60
2023/04/05 07:31:00;;;;;;;12.63;4.70;;;;;;;18.92;44.89;100849.47;5049361;28;20826;-60
2023/04/05 07:33:26;;;;;;;15.60;5.47;;;;;;;18.84;45.30;100859.91;5054524;28;20433;-60
2023/04/05 07:35:55;;;;;;;14.00;5.20;;;;;;;18.76;45.27;100854.38;5061096;28;20440;-60
2023/04/05 07:38:21;;;;;;;12.30;5.40;;;;;;;18.73;45.57;100852.22;5038098;28;20569;-62
2023/04/05 07:40:49;;;;;;;11.17;4.40;;;;;;;18.56;45.86;100855.47;5061916;28;20429;-61
2023/04/05 07:43:16;;;;;;;7.93;4.30;;;;;;;18.24;46.97;100851.69;5047831;28;20206;-61
2023/04/05 07:45:41;;;;;;;15.77;4.70;;;;;;;18.19;47.35;100860.53;5071456;28;21048;-61
2023/04/05 07:48:07;;;;;;;17.23;4.50;;;;;;;18.06;48.01;100852.41;5064158;28;20434;-61
2023/04/05 07:50:38;;;;;;;14.20;4.80;;;;;;;18.34;47.70;100858.94;5057398;28;20194;-61
2023/04/05 07:53:03;;;;;;;13.93;4.27;;;;;;;18.25;48.24;100859.06;5057365;28;20192;-61
2023/04/05 07:55:29;;;;;;;9.50;4.27;;;;;;;18.33;48.37;100860.97;5035191;28;21015;-61
2023/04/05 07:57:54;;;;;;;17.03;4.80;;;;;;;18.29;48.45;100860.00;5060068;28;20190;-61
2023/04/05 08:00:20;;;;;;;9.70;4.60;;;;;;;18.20;48.49;100865.03;5061692;28;20183;-61
2023/04/05 08:02:46;;;;;;;11.97;4.73;;;;;;;18.18;48.70;100860.91;5061345;28;20199;-61
2023/04/05 08:05:11;;;;;;;8.23;3.93;;;;;;;18.12;48.99;100863.16;5062348;28;20427;-61
2023/04/05 08:07:37;;;;;;;6.20;3.80;;;;;;;17.95;49.17;100872.06;5069967;28;20211;-62
2023/04/05 08:10:03;;;;;;;10.03;4.57;;;;;;;17.91;49.90;100865.41;5072023;28;20186;-61
2023/04/05 08:12:29;;;;;;;17.37;4.10;;;;;;;17.90;50.23;100869.47;5062039;28;20192;-61
2023/04/05 08:14:55;;;;;;;11.83;4.03;;;;;;;17.85;50.36;100869.72;5052252;28;20429;-61
2023/04/05 08:17:20;;;;;;;16.90;5.80;;;;;;;17.83;50.22;100866.41;5064746;28;20437;-61
2023/04/05 08:19:46;;;;;;;17.60;5.80;;;;;;;17.70;49.87;100855.41;5071629;28;20182;-61
2023/04/05 08:22:11;;;;;;;12.17;5.10;;;;;;;17.68;49.11;100860.63;5054100;28;20198;-61
2023/04/05 08:24:37;;;;;;;17.33;4.97;;;;;;;17.63;47.80;100858.88;5067044;28;20191;-61
2023/04/05 08:27:02;;;;;;;16.83;5.87;;;;;;;17.62;47.93;100857.22;5070547;28;20862;-62
2023/04/05 08:29:28;;;;;;;19.20;5.57;;;;;;;17.62;48.95;100854.34;5064866;28;20286;-61
2023/04/05 08:31:56;;;;;;;16.20;6.70;;;;;;;17.55;48.47;100854.13;5063306;28;20929;-61
2023/04/05 08:34:22;;;;;;;20.00;5.37;;;;;;;17.48;47.83;100856.75;5047643;28;20179;-61
2023/04/05 08:36:47;;;;;;;11.97;5.40;;;;;;;17.49;47.46;100849.00;5057457;28;20775;-61
2023/04/05 08:39:14;;;;;;;10.87;4.57;;;;;;;17.51;47.30;100849.50;5070853;28;20573;-61
2023/04/05 08:41:40;;;;;;;19.40;4.60;;;;;;;17.52;47.42;100849.16;5068620;28;20237;-61
2023/04/05 08:44:06;;;;;;;15.43;4.50;;;;;;;17.56;47.81;100855.78;5057840;28;20442;-61
2023/04/05 08:46:33;;;;;;;12.80;4.77;;;;;;;17.58;47.80;100853.41;5033400;28;20457;-61
2023/04/05 08:48:59;;;;;;;12.33;4.50;;;;;;;17.52;48.37;100852.00;5063583;28;20498;-62
2023/04/05 08:51:25;;;;;;;18.50;4.70;;;;;;;17.47;48.17;100846.53;5052683;28;20433;-62
2023/04/05 08:53:50;;;;;;;11.67;5.13;;;;;;;17.41;48.22;100847.16;5047131;28;20438;-62
2023/04/05 08:56:19;;;;;;;17.67;6.17;;;;;;;17.30;47.49;100852.47;5060247;28;20211;-62
2023/04/05 08:59:06;;;;;;;14.07;5.90;;;;;;;17.41;44.48;100853.66;5047886;28;20214;-61
2023/04/05 09:01:33;;;;;;;10.40;4.83;;;;;;;17.41;41.27;100858.56;5060367;28;20429;-62
2023/04/05 09:04:06;;;;;;;13.23;4.80;;;;;;;17.64;38.46;100849.09;5031814;28;20443;-61
2023/04/05 09:06:32;;;;;;;17.60;5.27;;;;;;;17.66;35.92;100846.69;5061020;28;20472;-62
2023/04/05 09:08:57;;;;;;;11.00;5.00;;;;;;;17.76;34.90;100843.34;5061692;28;20484;-62
2023/04/05 09:11:23;;;;;;;13.43;5.00;;;;;;;18.01;33.72;100841.22;5049763;28;20433;-61
2023/04/05 09:13:49;;;;;;;13.03;4.40;;;;;;;18.27;33.08;100838.69;5061211;28;20175;-61
2023/04/05 09:16:15;;;;;;;17.40;4.40;;;;;;;18.57;33.58;100846.50;5051392;28;20870;-61
2023/04/05 09:18:41;;;;;;;14.60;4.50;;;;;;;18.92;33.59;100841.69;5092027;28;20231;-61
2023/04/05 09:21:06;;;;;;;7.40;4.00;;;;;;;19.19;33.77;100832.16;5077624;28;20513;-61
2023/04/05 09:23:34;;;;;;;9.27;3.93;;;;;;;19.37;34.03;100827.69;5068458;28;20293;-61
2023/04/05 09:26:00;;;;;;;8.07;3.47;;;;;;;19.49;34.45;100830.44;5070480;28;20203;-61
2023/04/05 09:28:52;;;;;;;7.80;3.50;;;;;;;19.49;35.20;100824.72;5068803;28;20430;-61
2023/04/05 09:31:31;;;;;;;11.13;3.60;;;;;;;19.42;35.82;100835.19;5056825;28;20627;-61
2023/04/05 09:34:01;;;;;;;10.83;3.43;;;;;;;19.31;36.35;100829.19;5052972;28;20575;-61
2023/04/05 09:36:27;;;;;;;11.33;3.60;;;;;;;19.21;36.93;100828.94;5065951;28;20448;-62
2023/04/05 09:38:52;;;;;;;7.43;3.47;;;;;;;19.11;37.73;100824.59;5069836;28;20421;-61
2023/04/05 09:41:18;;;;;;;5.70;3.20;;;;;;;19.00;38.13;100828.41;5051821;28;20179;-61
2023/04/05 09:43:43;;;;;;;12.10;3.30;;;;;;;18.87;38.84;100826.84;5067548;28;20175;-61
2023/04/05 09:46:32;;;;;;;6.80;3.10;;;;;;;18.77;39.45;100828.22;5068481;28;20195;-61
2023/04/05 09:48:58;;;;;;;7.10;3.40;;;;;;;18.66;39.69;100829.19;5053866;28;20175;-61
2023/04/05 09:51:23;;;;;;;7.30;3.13;;;;;;;18.57;40.22;100832.19;5069147;28;20483;-62
2023/04/05 09:53:59;;;;;;;9.00;3.13;;;;;;;18.46;40.98;100831.09;5044406;28;20206;-61
2023/04/05 09:56:25;;;;;;;9.20;2.97;;;;;;;18.34;41.58;100825.47;5050456;28;20580;-61
2023/04/05 09:58:51;;;;;;;5.50;2.60;;;;;;;18.22;41.83;100825.50;5053849;28;20433;-61
2023/04/05 10:01:17;;;;;;;7.23;2.67;;;;;;;18.15;42.35;100825.31;5069083;28;20163;-61
2023/04/05 10:03:46;;;;;;;4.23;2.40;;;;;;;18.06;43.08;100830.34;5052472;28;20187;-61
2023/04/05 10:06:12;;;;;;;7.50;2.93;;;;;;;18.01;43.15;100824.09;5087363;28;20460;-61
2023/04/05 10:08:38;;;;;;;7.50;3.13;;;;;;;17.97;43.70;100829.66;5035866;28;21273;-61
2023/04/05 10:11:03;;;;;;;8.83;2.70;;;;;;;17.93;43.82;100816.50;5049308;28;20164;-61
2023/04/05 10:13:28;;;;;;;9.27;2.53;;;;;;;17.89;44.01;100822.09;5042054;28;20168;-62
2023/04/05 10:15:54;;;;;;;4.17;2.60;;;;;;;17.86;44.49;100822.81;5051168;28;20175;-61
2023/04/05 10:18:25;;;;;;;8.70;2.80;;;;;;;17.89;44.51;100812.69;5049251;28;20238;-61
2023/04/05 10:20:50;;;;;;;7.20;3.30;;;;;;;17.86;44.75;100822.81;5042465;28;20673;-61
2023/04/05 10:23:25;;;;;;;7.40;3.00;;;;;;;17.82;45.10;100821.91;5069857;28;20425;-61
2023/04/05 10:25:50;;;;;;;6.87;3.37;;;;;;;17.77;45.60;100813.59;5052058;28;20691;-61
2023/04/05 10:28:36;;;;;;;5.63;2.50;;;;;;;17.72;45.62;100816.72;5070027;28;20409;-61
2023/04/05 10:31:32;;;;;;;7.00;2.50;;;;;;;17.69;46.12;100808.03;5052274;28;20180;-61
2023/04/05 10:34:05;;;;;;;6.27;2.53;;;;;;;17.80;45.95;100807.16;5068951;28;20425;-61
2023/04/05 10:36:41;;;;;;;4.50;2.60;;;;;;;17.80;45.91;100809.19;5054952;28;20434;-61
2023/04/05 10:39:16;;;;;;;4.60;2.70;;;;;;;17.76;46.37;100797.66;5067908;28;21164;-59
2023/04/05 10:41:52;;;;;;;6.20;2.57;;;;;;;17.72;46.76;100799.59;5052259;28;20835;-59
2023/04/05 10:44:18;;;;;;;10.03;2.50;;;;;;;17.71;46.60;100797.91;5066046;28;20928;-60
2023/04/05 10:46:44;;;;;;;5.17;2.40;;;;;;;17.70;47.11;100793.41;5069602;28;20445;-60
2023/04/05 10:49:28;;;;;;;7.73;2.73;;;;;;;17.69;47.05;100796.59;5065934;28;20183;-60
2023/04/05 10:51:54;;;;;;;5.10;1.90;;;;;;;17.70;47.21;100796.25;5051995;28;20446;-60
2023/04/05 10:54:20;;;;;;;6.73;3.23;;;;;;;17.69;47.23;100800.31;5066463;28;20912;-61
2023/04/05 10:56:45;;;;;;;5.50;2.30;;;;;;;17.67;47.41;100794.13;5055118;28;20433;-60
2023/04/05 10:59:11;;;;;;;4.70;2.30;;;;;;;17.65;47.69;100790.78;5050224;28;20163;-60
2023/04/05 11:01:37;;;;;;;3.47;2.17;;;;;;;17.67;47.48;100790.44;5048347;28;20180;-60
2023/04/05 11:04:15;;;;;;;6.93;2.47;;;;;;;17.64;47.66;100794.00;5041057;28;20240;-60
2023/04/05 11:06:41;;;;;;;8.43;2.17;;;;;;;17.63;48.22;100786.66;5070319;28;20466;-60
2023/04/05 11:09:09;;;;;;;4.70;2.53;;;;;;;17.62;47.97;100787.84;5040208;28;20453;-60
2023/04/05 11:11:38;;;;;;;6.57;2.37;;;;;;;17.59;48.51;100780.84;5031340;28;20425;-60
2023/04/05 11:14:20;;;;;;;5.27;2.97;;;;;;;17.60;48.03;100773.94;5053127;28;20850;-60
2023/04/05 11:16:55;;;;;;;7.77;2.70;;;;;;;17.59;48.42;100777.97;5043190;28;20466;-60
2023/04/05 11:19:40;;;;;;;5.80;2.47;;;;;;;17.57;48.56;100774.66;5050323;28;20462;-60
2023/04/05 11:22:05;;;;;;;4.70;1.90;;;;;;;17.56;48.84;100775.84;5054166;28;20822;-60
2023/04/05 11:24:55;;;;;;;5.00;2.30;;;;;;;17.55;48.56;100777.03;5069200;28;20459;-60
2023/04/05 11:27:36;;;;;;;7.30;2.30;;;;;;;17.56;48.78;100777.88;5067160;28;20284;-60
2023/04/05 11:30:02;;;;;;;5.43;2.40;;;;;;;17.52;48.89;100777.78;5069327;28;20425;-60